Latest Weather Observations for Narrandera Airport

IDN60801

Issued at 1:03 pm EDT Wednesday 10 February 2016 (issued every 30 minutes, with the page automatically refreshed every 10 minutes)

About weather observations | Map of weather stations | Latest weather observations for NSW | Other Formats
Station Details ID: 074148 Name: NARRANDERA AIRPORT AWS Lat: -34.70 Lon: 146.51 Height: 145.0 m
Data from the previous 72 hours. | See also: Recent months at Narrandera Airport
Date/Time
EDT
Temp
°C
App
Temp
°C
Dew
Point
Rel
Hum
%
Delta-T
°C
Wind Press
QNH
hPa
Press
MSL
hPa
Rain
since 9 am
mm
Dir
 
Spd
km/h
Gust
km/h
Spd
kts
Gust
kts
10/01:00pm 35.0 31.1 8.7 20 15.0 WNW 19 30 10 16 1012.6 1011.8 0.0
10/12:30pm 34.2 30.5 8.0 20 14.7 W 17 26 9 14 1012.9 1012.1 0.0
10/12:00pm 33.7 30.4 10.9 25 13.4 NNW 19 32 10 17 1013.3 1012.5 0.0
10/11:30am 32.5 29.4 12.2 29 12.1 NW 20 37 11 20 1013.7 1012.9 0.0
10/11:00am 31.5 28.4 13.3 33 11.0 NNW 22 30 12 16 1014.1 1013.3 0.0
10/10:30am 30.7 27.4 13.9 36 10.2 NNW 24 30 13 16 1014.4 1013.6 0.0
10/10:00am 29.2 26.1 14.6 41 8.9 NNW 24 30 13 16 1014.6 1013.8 0.0
10/09:30am 27.8 24.4 13.7 42 8.4 NNW 24 30 13 16 1014.6 1013.8 0.0
10/09:00am 26.6 21.8 14.0 46 7.5 N 32 41 17 22 1014.4 1013.6 -
10/08:30am 25.7 23.8 14.2 49 6.9 N 17 24 9 13 1014.6 1013.8 -
10/08:00am 23.9 22.1 13.4 51 6.1 N 15 20 8 11 1014.4 1013.6 -
10/07:30am 21.9 21.8 13.8 60 4.7 N 7 11 4 6 1014.2 1013.4 -
10/07:00am 17.4 17.4 12.5 73 2.7 SSW 4 7 2 4 1013.9 1013.1 -
10/06:30am 17.9 18.6 12.1 69 3.2 CALM 0 0 0 0 1013.7 1012.9 -
10/06:00am 18.8 18.2 12.3 66 3.6 E 7 11 4 6 1013.3 1012.5 -
10/05:30am 19.1 20.1 13.3 69 3.3 CALM 0 4 0 2 1012.8 1012.0 -
10/05:00am 17.3 17.5 13.0 76 2.4 ENE 4 9 2 5 1012.7 1011.9 -
10/04:30am 17.9 18.7 12.4 70 3.1 CALM 0 0 0 0 1012.7 1011.9 -
10/04:00am 18.4 19.2 12.4 68 3.4 CALM 0 0 0 0 1012.7 1011.9 -
10/03:30am 19.2 19.9 12.2 64 3.9 CALM 0 0 0 0 1012.8 1012.0 -
10/03:00am 21.1 21.6 12.8 59 4.7 SSE 2 6 1 3 1013.0 1012.2 0.0
10/02:30am 20.3 19.8 13.7 66 3.8 ESE 9 11 5 6 1013.2 1012.4 -
10/02:00am 18.6 19.4 12.4 67 3.5 CALM 0 0 0 0 1013.5 1012.7 -
10/01:30am 20.7 21.8 13.4 63 4.2 CALM 0 0 0 0 1013.8 1013.0 -
10/01:00am 20.2 21.1 12.9 63 4.2 CALM 0 0 0 0 1014.0 1013.2 -
10/12:30am 20.9 21.8 12.8 60 4.6 CALM 0 0 0 0 1014.2 1013.4 -
10/12:00am 21.9 22.9 13.3 58 5.0 CALM 0 0 0 0 1014.4 1013.6 -
 
Date/Time
EDT
Temp
°C
App
Temp
°C
Dew
Point
Rel
Hum
%
Delta-T
°C
Wind Press
QNH
hPa
Press
MSL
hPa
Rain
since 9 am
mm
Dir
 
Spd
km/h
Gust
km/h
Spd
kts
Gust
kts
09/11:30pm 25.0 25.5 12.9 47 7.1 N 2 7 1 4 1014.5 1013.7 -
09/11:00pm 24.9 24.5 12.5 46 7.2 SSW 6 9 3 5 1014.7 1013.9 -
09/10:30pm 26.6 25.5 11.9 40 8.5 ENE 9 13 5 7 1014.8 1014.0 -
09/10:00pm 28.1 27.2 11.2 35 9.7 SW 7 9 4 5 1014.8 1014.0 -
09/09:30pm 27.1 27.9 12.7 41 8.4 CALM 0 0 0 0 1014.3 1013.5 -
09/09:00pm 27.4 27.7 12.2 39 8.9 ESE 2 7 1 4 1014.1 1013.3 0.0
09/08:30pm 29.2 28.6 12.2 35 10.0 NE 7 9 4 5 1014.1 1013.3 -
09/08:00pm 31.3 30.9 13.1 33 10.9 ESE 7 9 4 5 1014.1 1013.3 -
09/07:30pm 33.4 33.1 11.3 26 13.0 SE 4 7 2 4 1014.0 1013.2 -
09/07:00pm 34.4 33.0 8.9 21 14.5 S 6 11 3 6 1013.8 1013.0 -
09/06:30pm 34.8 34.1 8.5 20 14.9 SSE 2 7 1 4 1013.8 1013.0 -
09/06:00pm 35.3 33.6 9.7 21 14.8 SW 9 15 5 8 1013.9 1013.1 -
09/05:30pm 35.8 34.7 10.1 21 15.0 SW 6 17 3 9 1014.3 1013.5 -
09/05:00pm 34.6 32.9 9.8 22 14.3 SW 9 17 5 9 1014.5 1013.7 -
09/04:30pm 34.9 34.4 10.7 23 14.2 ESE 4 13 2 7 1014.9 1014.1 -
09/04:00pm 33.7 32.9 9.7 23 13.8 NNW 4 11 2 6 1015.4 1014.6 -
09/03:30pm 34.8 33.3 10.6 23 14.2 NW 9 20 5 11 1015.8 1015.0 -
09/03:00pm 34.8 32.0 11.2 24 14.0 W 17 26 9 14 1016.3 1015.6 0.0
09/02:30pm 33.9 31.4 12.3 27 12.9 NNW 17 26 9 14 1016.7 1016.0 -
09/02:00pm 33.9 32.9 12.3 27 12.9 NW 9 20 5 11 1017.2 1016.5 -
09/12:30pm 32.2 29.5 12.9 31 11.6 N 19 30 10 16 1018.3 1017.6 0.0
09/12:00pm 31.6 28.7 12.4 31 11.4 NNE 19 28 10 15 1018.7 1018.0 0.0
09/11:30am 30.4 27.5 12.3 33 10.7 NNE 19 28 10 15 1019.1 1018.4 0.0
09/11:00am 29.6 26.6 12.5 35 10.1 NNE 20 26 11 14 1019.3 1018.6 0.0
09/10:30am 27.8 24.4 12.6 39 8.9 NNE 22 30 12 16 1019.6 1018.8 0.0
09/10:00am 27.2 24.2 12.4 40 8.6 NNE 20 28 11 15 1019.7 1018.9 0.0
09/09:30am 26.2 23.1 13.3 45 7.6 NE 22 32 12 17 1019.4 1018.7 0.0
09/09:00am 24.9 22.6 14.1 51 6.4 ENE 19 22 10 12 1019.7 1018.9 0.0
09/08:30am 23.7 21.2 14.1 55 5.7 NE 20 28 11 15 1019.3 1018.6 0.0
09/08:00am 22.2 19.6 13.3 57 5.1 ENE 19 24 10 13 1018.9 1018.2 0.0
09/07:30am 20.9 18.3 12.1 57 5.0 ENE 17 20 9 11 1018.8 1018.1 0.0
09/07:00am 20.7 17.8 11.1 54 5.3 ENE 17 20 9 11 1018.4 1017.7 0.0
09/06:30am 20.3 17.8 11.0 55 5.1 E 15 19 8 10 1018.0 1017.3 0.0
09/06:00am 19.8 17.3 11.0 57 4.8 ESE 15 15 8 8 1017.8 1017.1 0.0
09/05:30am 20.1 19.0 11.8 59 4.6 E 9 11 5 6 1017.4 1016.7 0.0
09/05:00am 18.3 18.4 11.6 65 3.7 E 2 9 1 5 1017.0 1016.3 0.0
09/04:30am 18.1 18.5 11.2 64 3.8 CALM 0 0 0 0 1016.8 1016.1 0.0
09/04:00am 18.9 19.3 11.2 61 4.2 CALM 0 0 0 0 1016.7 1016.0 0.0
09/03:30am 19.8 20.1 10.8 56 4.9 CALM 0 0 0 0 1016.6 1015.9 0.0
09/03:00am 21.1 19.8 10.0 49 6.0 SW 7 9 4 5 1016.7 1016.0 0.0
09/02:30am 22.3 20.9 9.5 44 6.9 SE 7 11 4 6 1016.8 1016.1 0.0
09/02:00am 22.9 23.1 10.7 46 6.8 CALM 0 11 0 6 1016.8 1016.1 0.0
09/01:30am 24.2 22.4 9.4 39 8.1 S 9 11 5 6 1016.7 1016.0 0.0
09/01:00am 25.6 23.4 9.4 36 8.9 S 11 17 6 9 1016.9 1016.2 0.0
09/12:30am 26.2 23.9 10.4 37 8.9 S 13 19 7 10 1016.9 1016.2 0.0
09/12:00am 26.9 24.0 9.7 34 9.6 SSE 15 20 8 11 1016.9 1016.2 0.0
 
Date/Time
EDT
Temp
°C
App
Temp
°C
Dew
Point
Rel
Hum
%
Delta-T
°C
Wind Press
QNH
hPa
Press
MSL
hPa
Rain
since 9 am
mm
Dir
 
Spd
km/h
Gust
km/h
Spd
kts
Gust
kts
08/11:30pm 28.3 24.7 10.0 32 10.3 S 19 26 10 14 1016.8 1016.1 0.0
08/11:00pm 28.4 25.8 10.6 33 10.1 S 15 22 8 12 1016.8 1016.1 0.0
08/10:30pm 29.2 26.2 10.8 32 10.6 S 17 24 9 13 1016.8 1016.1 0.0
08/10:00pm 28.9 26.3 11.9 35 9.9 SSW 17 28 9 15 1016.5 1015.8 0.0
08/09:30pm 26.5 27.5 13.3 44 7.8 CALM 0 0 0 0 1016.0 1015.2 0.0
08/09:00pm 28.3 28.9 11.8 36 9.6 CALM 0 0 0 0 1015.8 1015.0 0.0
08/08:30pm 30.6 30.8 10.5 29 11.6 CALM 0 0 0 0 1015.6 1014.8 0.0
08/08:00pm 32.5 31.9 10.5 26 12.7 SSE 4 7 2 4 1015.4 1014.6 0.0
08/07:30pm 33.3 31.3 10.0 24 13.5 SSE 11 17 6 9 1015.3 1014.5 0.0
08/07:00pm 34.1 32.6 10.7 24 13.7 S 9 15 5 8 1015.2 1014.4 0.0
08/06:30pm 34.3 32.7 10.2 23 14.0 S 9 17 5 9 1015.2 1014.4 0.0
08/06:00pm 34.7 32.4 10.5 23 14.2 SSE 13 20 7 11 1015.2 1014.4 0.0
08/05:30pm 34.7 31.3 10.5 23 14.2 SSW 19 28 10 15 1015.6 1014.8 0.0
08/05:00pm 34.8 31.4 10.6 23 14.2 SSW 19 32 10 17 1015.7 1014.9 0.0
08/04:30pm 34.0 31.0 10.6 24 13.7 S 17 26 9 14 1016.0 1015.2 0.0
08/04:00pm 34.3 32.1 10.8 24 13.8 SSE 13 20 7 11 1016.2 1015.4 0.0
08/03:30pm 35.2 34.6 12.2 25 13.8 SW 7 17 4 9 1016.5 1015.8 0.0
08/03:00pm 33.8 30.9 9.8 23 13.8 SSE 15 26 8 14 1016.8 1016.1 0.0
08/02:30pm 34.6 33.6 12.3 26 13.4 WSW 9 20 5 11 1017.1 1016.4 0.0
08/02:00pm 32.9 32.4 12.0 28 12.4 SW 6 15 3 8 1017.5 1016.8 0.0
08/01:30pm 32.8 32.1 11.9 28 12.4 SSE 7 15 4 8 1017.9 1017.2 0.0
08/01:00pm 32.4 31.7 12.1 29 12.0 SSE 7 17 4 9 1018.2 1017.5 0.0
08/12:30pm 31.8 31.1 12.1 30 11.7 N 7 15 4 8 1018.6 1017.9 0.0
08/12:00pm 31.9 31.8 12.2 30 11.7 ENE 4 7 2 4 1018.9 1018.2 0.0
08/11:30am 31.2 31.1 12.1 31 11.3 E 4 11 2 6 1019.2 1018.5 0.0
08/11:00am 29.7 28.7 12.2 34 10.3 NNE 9 17 5 9 1019.3 1018.6 0.0
08/10:30am 29.2 27.0 12.2 35 10.0 NNE 15 22 8 12 1019.3 1018.6 0.0
08/10:00am 28.2 26.5 12.5 37 9.2 N 13 17 7 9 1019.4 1018.7 0.0
08/09:30am 26.9 26.1 14.0 45 7.7 NNE 11 17 6 9 1019.3 1018.6 0.0
08/09:00am 26.0 24.7 13.8 47 7.2 NE 13 17 7 9 1019.2 1018.5 0.0
08/08:30am 24.5 23.2 13.7 51 6.4 NE 13 17 7 9 1019.1 1018.4 0.0
08/08:00am 22.7 23.3 14.3 59 5.0 SE 4 9 2 5 1018.9 1018.2 0.0
08/07:30am 21.0 22.1 13.4 62 4.4 CALM 0 6 0 3 1018.7 1018.0 0.0
08/07:00am 19.6 19.0 13.5 68 3.5 SE 9 11 5 6 1018.3 1017.6 0.0
08/06:30am 19.3 18.6 13.3 68 3.4 ESE 9 11 5 6 1017.9 1017.2 0.0
08/06:00am 19.7 20.5 12.7 64 4.0 CALM 0 0 0 0 1017.5 1016.8 0.0
08/05:30am 20.0 20.6 13.2 65 3.9 ESE 2 7 1 4 1017.2 1016.5 0.0
08/05:00am 20.6 20.0 13.6 64 4.0 SE 9 11 5 6 1017.0 1016.3 0.0
08/04:30am 20.8 21.3 14.0 65 4.0 SSE 4 7 2 4 1016.8 1016.1 0.0
08/04:00am 20.5 21.7 14.8 70 3.4 SE 2 7 1 4 1016.7 1016.0 0.0
08/03:30am 19.6 20.7 15.5 77 2.4 E 4 19 2 10 1016.7 1016.0 0.0
08/03:00am 19.8 21.5 15.2 75 2.7 CALM 0 0 0 0 1016.5 1015.8 0.0
08/02:30am 19.9 21.6 15.1 74 2.8 CALM 0 0 0 0 1016.6 1015.9 0.0
08/02:00am 19.6 21.1 14.6 73 2.9 CALM 0 0 0 0 1016.7 1016.0 0.0
08/01:30am 20.1 21.7 14.9 72 3.1 CALM 0 0 0 0 1016.7 1016.0 0.0
08/01:00am 20.4 22.1 15.2 72 3.1 CALM 0 0 0 0 1016.9 1016.2 0.0
08/12:30am 20.3 21.8 14.7 70 3.3 CALM 0 0 0 0 1016.8 1016.1 0.0
08/12:00am 21.0 22.6 14.9 68 3.6 CALM 0 0 0 0 1016.8 1016.1 0.0
 
Date/Time
EDT
Temp
°C
App
Temp
°C
Dew
Point
Rel
Hum
%
Delta-T
°C
Wind Press
QNH
hPa
Press
MSL
hPa
Rain
since 9 am
mm
Dir
 
Spd
km/h
Gust
km/h
Spd
kts
Gust
kts
07/11:30pm 21.5 23.1 14.9 66 3.9 CALM 0 0 0 0 1016.7 1016.0 0.0
07/11:00pm 22.3 24.0 15.2 64 4.2 CALM 0 0 0 0 1016.6 1015.9 0.0
07/10:30pm 22.5 24.0 14.6 61 4.7 CALM 0 0 0 0 1016.5 1015.8 0.0
07/10:00pm 23.3 25.0 15.1 60 4.9 CALM 0 0 0 0 1016.4 1015.7 0.0
07/09:30pm 24.2 25.6 14.3 54 5.9 CALM 0 0 0 0 1016.1 1015.3 0.0
07/09:00pm 25.9 27.2 14.1 48 7.0 CALM 0 0 0 0 1015.7 1014.9 0.0
07/08:30pm 27.9 28.5 13.1 40 8.8 SSW 2 6 1 3 1015.3 1014.5 0.0
07/08:00pm 30.1 29.6 12.1 33 10.6 S 6 7 3 4 1015.1 1014.3 0.0
07/07:30pm 31.0 29.9 11.9 31 11.2 S 9 13 5 7 1014.8 1014.0 0.0
07/07:00pm 31.4 29.5 11.7 29 11.6 SSE 13 20 7 11 1014.5 1013.7 0.0
07/06:30pm 31.7 29.3 12.5 31 11.4 S 17 20 9 11 1014.3 1013.5 0.0
07/06:00pm 31.8 30.1 13.5 32 11.1 SE 15 20 8 11 1014.3 1013.5 0.0
07/05:30pm 31.4 29.4 12.7 32 11.2 SSE 15 20 8 11 1014.5 1013.7 0.0
07/05:00pm 31.2 29.5 12.5 31 11.1 S 13 20 7 11 1014.7 1013.9 0.0
07/04:30pm 31.3 29.0 13.1 33 10.9 SSE 17 28 9 15 1014.9 1014.1 0.0
07/04:00pm 31.2 30.3 12.5 31 11.1 SE 9 20 5 11 1015.1 1014.3 0.0
07/03:30pm 31.2 29.5 13.5 34 10.7 S 15 26 8 14 1015.5 1014.7 0.0
07/03:00pm 30.9 29.2 13.7 35 10.4 SE 15 22 8 12 1015.7 1014.9 0.0
07/02:30pm 30.3 27.9 12.7 34 10.5 SE 17 22 9 12 1016.0 1015.2 0.0
07/02:00pm 30.6 30.5 13.4 35 10.3 SW 6 15 3 8 1016.2 1015.4 0.0
07/01:30pm 30.3 29.8 12.2 33 10.7 E 6 20 3 11 1016.5 1015.8 0.0

Other Formats:

Comma delimited format used in spreadsheet applications
http://www.bom.gov.au/fwo/IDN60801/IDN60801.95706.axf

JavaScript Object Notation format (JSON) in row-major order
http://www.bom.gov.au/fwo/IDN60801/IDN60801.95706.json